Time;durP1;ratioP1;P1;durP2;ratioP2;P2;SDS_P1;SDS_P2;PMS_P1;PMS_P2;Temp;Humidity;BMP_temperature;BMP_pressure;BME280_temperature;BME280_humidity;BME280_pressure;Samples;Min_cycle;Max_cycle;Signal;HPM_P1;HPM_P2
2023/09/27 04:55:29;;;;;;;1999.90;999.90;;;;;;;;;;5420957;23;20083;-60
2023/09/27 04:57:55;;;;;;;1999.90;999.90;;;;;;;;;;4972703;28;20042;-65
2023/09/27 05:00:22;;;;;;;1999.90;999.90;;;;;;;;;;4973261;28;20026;-63
2023/09/27 05:02:48;;;;;;;1999.90;999.90;;;;;;;;;;4973589;28;20058;-60
2023/09/27 05:05:14;;;;;;;1999.90;999.90;;;;;;;;;;4973087;28;20033;-60
2023/09/27 05:07:40;;;;;;;1999.90;999.90;;;;;;;;;;4973412;28;20093;-62
2023/09/27 05:10:07;;;;;;;1999.90;999.90;;;;;;;;;;4973452;28;20041;-62
2023/09/27 05:12:33;;;;;;;1999.90;999.90;;;;;;;;;;4973229;28;20074;-60
2023/09/27 05:15:00;;;;;;;1999.90;999.90;;;;;;;;;;4973257;28;20070;-60
2023/09/27 05:17:26;;;;;;;1999.90;999.90;;;;;;;;;;4973178;28;20026;-64
2023/09/27 05:19:53;;;;;;;1999.90;999.90;;;;;;;;;;4972867;28;20030;-62
2023/09/27 05:22:19;;;;;;;1999.90;999.90;;;;;;;;;;4973027;28;20027;-62
2023/09/27 05:24:48;;;;;;;1999.90;999.90;;;;;;;;;;4972822;28;20042;-63
2023/09/27 05:27:14;;;;;;;1999.90;999.90;;;;;;;;;;4969898;28;20035;-62
2023/09/27 05:29:41;;;;;;;1999.90;999.90;;;;;;;;;;4992121;28;20042;-61
2023/09/27 05:32:08;;;;;;;1999.90;999.90;;;;;;;;;;4992458;28;20033;-62
2023/09/27 05:34:34;;;;;;;1999.90;999.90;;;;;;;;;;4974561;28;20038;-62
2023/09/27 05:37:01;;;;;;;1999.90;999.90;;;;;;;;;;4991953;28;20553;-63
2023/09/27 05:39:28;;;;;;;1999.90;999.90;;;;;;;;;;4992310;28;20378;-64
2023/09/27 05:41:54;;;;;;;1999.90;999.90;;;;;;;;;;4991946;28;20060;-61
2023/09/27 05:44:20;;;;;;;1999.90;999.90;;;;;;;;;;4991848;28;20051;-66
2023/09/27 05:46:46;;;;;;;1999.90;999.90;;;;;;;;;;4979334;28;20037;-64
2023/09/27 05:49:14;;;;;;;1999.90;999.90;;;;;;;;;;4972449;28;20034;-61
2023/09/27 05:51:40;;;;;;;1999.90;999.90;;;;;;;;;;4972130;28;20106;-63
2023/09/27 05:54:07;;;;;;;1999.90;999.90;;;;;;;;;;4972323;28;20050;-66
2023/09/27 05:56:33;;;;;;;1999.90;999.90;;;;;;;;;;4971806;28;20474;-62
2023/09/27 05:58:59;;;;;;;1999.90;999.90;;;;;;;;;;4972332;28;20031;-62
2023/09/27 06:01:25;;;;;;;1999.90;999.90;;;;;;;;;;4972319;28;20378;-64
2023/09/27 06:03:51;;;;;;;1999.90;999.90;;;;;;;;;;4972453;28;20479;-64
2023/09/27 06:06:18;;;;;;;1999.90;999.90;;;;;;;;;;4971909;28;20031;-65
2023/09/27 06:08:44;;;;;;;1999.90;999.90;;;;;;;;;;4971676;28;20023;-66
2023/09/27 06:11:10;;;;;;;1999.90;999.90;;;;;;;;;;4971813;28;20023;-64
2023/09/27 06:13:39;;;;;;;1999.90;999.90;;;;;;;;;;4972193;28;20023;-67
2023/09/27 06:16:12;;;;;;;1999.90;999.90;;;;;;;;;;4971885;28;20035;-66
2023/09/27 06:18:38;;;;;;;1999.90;999.90;;;;;;;;;;4971871;28;20430;-64
2023/09/27 06:21:05;;;;;;;1999.90;999.90;;;;;;;;;;4971644;28;20413;-63
2023/09/27 06:23:31;;;;;;;1999.90;999.90;;;;;;;;;;4971643;28;20146;-66
2023/09/27 06:25:57;;;;;;;1999.90;999.90;;;;;;;;;;4971280;28;20026;-64
2023/09/27 06:28:23;;;;;;;1999.90;999.90;;;;;;;;;;4971533;28;20550;-66
2023/09/27 06:30:49;;;;;;;1999.90;999.90;;;;;;;;;;4971324;28;20474;-63
2023/09/27 06:33:15;;;;;;;1999.90;999.90;;;;;;;;;;4971180;28;20027;-68
2023/09/27 06:35:42;;;;;;;1999.90;999.90;;;;;;;;;;4918498;29;20049;-62
2023/09/27 06:38:08;;;;;;;1999.90;999.90;;;;;;;;;;4933085;29;20369;-62
2023/09/27 06:40:35;;;;;;;1999.90;999.90;;;;;;;;;;4942527;29;20039;-62
2023/09/27 06:43:01;;;;;;;1999.90;999.90;;;;;;;;;;4932406;29;20032;-62
2023/09/27 06:45:28;;;;;;;1999.90;999.90;;;;;;;;;;4915585;29;20027;-63
2023/09/27 06:47:55;;;;;;;1999.90;999.90;;;;;;;;;;4933028;29;20217;-68
2023/09/27 06:50:22;;;;;;;1999.90;999.90;;;;;;;;;;4932720;29;20042;-63
2023/09/27 06:52:48;;;;;;;1999.90;999.90;;;;;;;;;;4932707;29;20023;-65
2023/09/27 06:55:18;;;;;;;1999.90;999.90;;;;;;;;;;4932399;29;20562;-62
2023/09/27 06:57:46;;;;;;;1999.90;999.90;;;;;;;;;;4932801;29;20063;-63
2023/09/27 07:00:18;;;;;;;1999.90;999.90;;;;;;;;;;4932995;29;20024;-65
2023/09/27 07:02:47;;;;;;;1999.90;999.90;;;;;;;;;;4933080;29;20023;-62
2023/09/27 07:05:14;;;;;;;1999.90;999.90;;;;;;;;;;4932469;29;20024;-63
2023/09/27 07:07:40;;;;;;;1999.90;999.90;;;;;;;;;;4932895;29;20086;-63
2023/09/27 07:10:07;;;;;;;1999.90;999.90;;;;;;;;;;4932638;29;20388;-63
2023/09/27 07:12:34;;;;;;;1999.90;999.90;;;;;;;;;;4932790;29;20472;-64
2023/09/27 07:15:00;;;;;;;1999.90;999.90;;;;;;;;;;4933037;29;20040;-66
2023/09/27 07:17:26;;;;;;;1999.90;999.90;;;;;;;;;;4932784;29;20082;-64
2023/09/27 07:19:53;;;;;;;1999.90;999.90;;;;;;;;;;4932731;29;20083;-69
2023/09/27 07:22:19;;;;;;;1999.90;999.90;;;;;;;;;;4935931;29;20028;-64
2023/09/27 07:24:45;;;;;;;1999.90;999.90;;;;;;;;;;4936466;29;20492;-68
2023/09/27 07:27:13;;;;;;;1999.90;999.90;;;;;;;;;;4936622;29;20118;-63
2023/09/27 07:29:39;;;;;;;1999.90;999.90;;;;;;;;;;4944602;28;20077;-62
2023/09/27 07:32:05;;;;;;;1999.90;999.90;;;;;;;;;;4956469;28;20492;-67
2023/09/27 07:34:31;;;;;;;1999.90;999.90;;;;;;;;;;4974963;28;20038;-62
2023/09/27 07:36:57;;;;;;;1999.90;999.90;;;;;;;;;;4974295;28;20022;-72
2023/09/27 07:39:24;;;;;;;1999.90;999.90;;;;;;;;;;4974638;28;20109;-62
2023/09/27 07:41:50;;;;;;;1999.90;999.90;;;;;;;;;;4974243;28;20050;-64
2023/09/27 07:44:17;;;;;;;1999.90;999.90;;;;;;;;;;4974399;28;20114;-64
2023/09/27 07:46:44;;;;;;;1999.90;999.90;;;;;;;;;;4974759;28;20483;-74
2023/09/27 07:49:10;;;;;;;1999.90;999.90;;;;;;;;;;4974207;28;20513;-65
2023/09/27 07:51:36;;;;;;;1999.90;999.90;;;;;;;;;;4974650;28;20055;-63
2023/09/27 07:54:08;;;;;;;1999.90;999.90;;;;;;;;;;4956144;28;20483;-64
2023/09/27 07:56:39;;;;;;;1999.90;999.90;;;;;;;;;;4974324;28;20063;-70
2023/09/27 07:59:06;;;;;;;1999.90;999.90;;;;;;;;;;4969025;28;20059;-63
2023/09/27 08:01:33;;;;;;;1999.90;999.90;;;;;;;;;;4954858;29;20078;-65
2023/09/27 08:04:06;;;;;;;1999.90;999.90;;;;;;;;;;4954882;29;20114;-63
2023/09/27 08:06:35;;;;;;;1999.90;999.90;;;;;;;;;;4936980;29;20383;-63
2023/09/27 08:09:01;;;;;;;1999.90;999.90;;;;;;;;;;4936928;29;20130;-62
2023/09/27 08:11:28;;;;;;;1999.90;999.90;;;;;;;;;;4954149;29;20031;-63
2023/09/27 08:13:54;;;;;;;1999.90;999.90;;;;;;;;;;4954886;29;20034;-64
2023/09/27 08:16:20;;;;;;;1999.90;999.90;;;;;;;;;;4954847;29;20483;-62
2023/09/27 08:18:46;;;;;;;1999.90;999.90;;;;;;;;;;4954712;29;20082;-62
2023/09/27 08:21:12;;;;;;;1999.90;999.90;;;;;;;;;;4954258;29;20145;-62
2023/09/27 08:23:39;;;;;;;1999.90;999.90;;;;;;;;;;4954487;29;20026;-64
2023/09/27 08:26:05;;;;;;;1999.90;999.90;;;;;;;;;;4954094;28;20514;-62
2023/09/27 08:28:32;;;;;;;1999.90;999.90;;;;;;;;;;4954156;28;20031;-63
2023/09/27 08:31:04;;;;;;;1999.90;999.90;;;;;;;;;;4954498;29;20074;-62
2023/09/27 08:33:30;;;;;;;1999.90;999.90;;;;;;;;;;4935616;29;20035;-62
2023/09/27 08:35:56;;;;;;;1999.90;999.90;;;;;;;;;;4954298;29;20031;-66
2023/09/27 08:38:22;;;;;;;1999.90;999.90;;;;;;;;;;4954203;29;20390;-64
2023/09/27 08:40:49;;;;;;;1999.90;999.90;;;;;;;;;;4954642;29;20402;-63
2023/09/27 08:43:15;;;;;;;1999.90;999.90;;;;;;;;;;4954545;29;20030;-62
2023/09/27 08:45:43;;;;;;;1999.90;999.90;;;;;;;;;;4954284;29;20019;-63
2023/09/27 08:48:16;;;;;;;1999.90;999.90;;;;;;;;;;4954052;29;20035;-72
2023/09/27 08:50:42;;;;;;;1999.90;999.90;;;;;;;;;;4953855;29;20031;-67
2023/09/27 08:53:10;;;;;;;1999.90;999.90;;;;;;;;;;4953936;29;20031;-66
2023/09/27 08:55:38;;;;;;;1999.90;999.90;;;;;;;;;;4953477;28;20135;-69
2023/09/27 08:58:04;;;;;;;1999.90;999.90;;;;;;;;;;4953594;29;20066;-75
2023/09/27 09:00:32;;;;;;;1999.90;999.90;;;;;;;;;;4953559;28;20136;-64
2023/09/27 09:03:00;;;;;;;1999.90;999.90;;;;;;;;;;4936277;29;20462;-64
2023/09/27 09:05:27;;;;;;;1999.90;999.90;;;;;;;;;;4953701;29;20019;-64
2023/09/27 09:07:55;;;;;;;1999.90;999.90;;;;;;;;;;4932740;29;20036;-62
2023/09/27 09:10:22;;;;;;;1999.90;999.90;;;;;;;;;;4925368;29;20056;-62
2023/09/27 09:12:48;;;;;;;1999.90;999.90;;;;;;;;;;4919510;29;20360;-62
2023/09/27 09:15:40;;;;;;;1999.90;999.90;;;;;;;;;;4934754;29;20087;-64
2023/09/27 09:18:08;;;;;;;1999.90;999.90;;;;;;;;;;4934504;29;20024;-74
2023/09/27 09:20:48;;;;;;;1999.90;999.90;;;;;;;;;;4943292;29;20746;-73
2023/09/27 09:23:27;;;;;;;1999.90;999.90;;;;;;;;;;4943459;29;20387;-63
2023/09/27 09:25:56;;;;;;;1999.90;999.90;;;;;;;;;;4943671;29;20028;-63
2023/09/27 09:28:22;;;;;;;1999.90;999.90;;;;;;;;;;4942063;29;20070;-63
2023/09/27 09:30:49;;;;;;;1999.90;999.90;;;;;;;;;;4943790;29;20027;-62
2023/09/27 09:33:20;;;;;;;1999.90;999.90;;;;;;;;;;4943388;29;20023;-66
2023/09/27 09:35:46;;;;;;;1999.90;999.90;;;;;;;;;;4942390;29;20050;-69
2023/09/27 09:38:14;;;;;;;1999.90;999.90;;;;;;;;;;4943877;29;20016;-63
2023/09/27 09:40:52;;;;;;;1999.90;999.90;;;;;;;;;;4944659;29;20054;-64
2023/09/27 09:43:38;;;;;;;1999.90;999.90;;;;;;;;;;4938998;29;20114;-62
2023/09/27 09:46:06;;;;;;;1999.90;999.90;;;;;;;;;;4934283;29;20083;-68
2023/09/27 09:48:36;;;;;;;1999.90;999.90;;;;;;;;;;4934171;29;20036;-63
2023/09/27 09:51:06;;;;;;;1999.90;999.90;;;;;;;;;;4934508;28;20036;-63
2023/09/27 09:53:36;;;;;;;1999.90;999.90;;;;;;;;;;4976386;28;20082;-72
2023/09/27 09:56:05;;;;;;;1999.90;999.90;;;;;;;;;;4961212;28;20059;-67
2023/09/27 09:58:35;;;;;;;1999.90;999.90;;;;;;;;;;4947726;28;20024;-76
2023/09/27 10:01:02;;;;;;;1999.90;999.90;;;;;;;;;;4945083;29;20035;-70
2023/09/27 10:03:31;;;;;;;1999.90;999.90;;;;;;;;;;4939237;29;20042;-72
2023/09/27 10:05:57;;;;;;;1999.90;999.90;;;;;;;;;;4942235;29;20016;-68
2023/09/27 10:08:24;;;;;;;1999.90;999.90;;;;;;;;;;4942912;29;20024;-68
2023/09/27 10:10:50;;;;;;;1999.90;999.90;;;;;;;;;;4943104;29;20039;-67
2023/09/27 10:13:18;;;;;;;1999.90;999.90;;;;;;;;;;4939288;29;20026;-67
2023/09/27 10:15:44;;;;;;;1999.90;999.90;;;;;;;;;;4945651;29;20031;-62
2023/09/27 10:18:22;;;;;;;1999.90;999.90;;;;;;;;;;4942275;29;20052;-62
2023/09/27 10:21:08;;;;;;;1999.90;999.90;;;;;;;;;;4942270;29;20042;-66
2023/09/27 10:23:40;;;;;;;1999.90;999.90;;;;;;;;;;4942705;29;20016;-64
2023/09/27 10:26:18;;;;;;;1999.90;999.90;;;;;;;;;;4941696;28;20031;-65
2023/09/27 10:29:15;;;;;;;1999.90;999.90;;;;;;;;;;4941613;29;20111;-63
2023/09/27 10:31:56;;;;;;;1999.90;999.90;;;;;;;;;;4944917;29;20098;-64
2023/09/27 10:34:25;;;;;;;1999.90;999.90;;;;;;;;;;4943406;29;20035;-63
2023/09/27 10:36:52;;;;;;;1999.90;999.90;;;;;;;;;;4942142;29;20035;-62
2023/09/27 10:39:18;;;;;;;1999.90;999.90;;;;;;;;;;4949764;29;20031;-63
2023/09/27 10:41:48;;;;;;;1999.90;999.90;;;;;;;;;;4952579;29;20027;-69
2023/09/27 10:44:27;;;;;;;1999.90;999.90;;;;;;;;;;4952615;29;20019;-64
2023/09/27 10:46:54;;;;;;;1999.90;999.90;;;;;;;;;;4952343;29;20053;-68
2023/09/27 10:49:27;;;;;;;1999.90;999.90;;;;;;;;;;4952185;29;20034;-63
2023/09/27 10:51:53;;;;;;;1999.90;999.90;;;;;;;;;;4949405;28;20086;-68
2023/09/27 10:54:23;;;;;;;1999.90;999.90;;;;;;;;;;4952013;29;20041;-67
2023/09/27 10:56:58;;;;;;;1999.90;999.90;;;;;;;;;;4954427;28;20082;-65
2023/09/27 10:59:24;;;;;;;1999.90;999.90;;;;;;;;;;4955846;29;20031;-68
2023/09/27 11:01:50;;;;;;;1999.90;999.90;;;;;;;;;;4955929;29;20058;-67
2023/09/27 11:04:20;;;;;;;1999.90;999.90;;;;;;;;;;4955800;29;20130;-65
2023/09/27 11:06:46;;;;;;;1999.90;999.90;;;;;;;;;;4957103;29;20039;-70
2023/09/27 11:09:12;;;;;;;1999.90;999.90;;;;;;;;;;4956076;29;20031;-67
2023/09/27 11:11:44;;;;;;;1999.90;999.90;;;;;;;;;;4955987;29;20035;-68
2023/09/27 11:14:10;;;;;;;1999.90;999.90;;;;;;;;;;4955887;29;20357;-66
2023/09/27 11:16:37;;;;;;;1999.90;999.90;;;;;;;;;;4955960;29;20035;-66
2023/09/27 11:19:04;;;;;;;1999.90;999.90;;;;;;;;;;4956122;29;20028;-68
2023/09/27 11:21:31;;;;;;;1999.90;999.90;;;;;;;;;;4956151;29;20050;-67
2023/09/27 11:24:00;;;;;;;1999.90;999.90;;;;;;;;;;4955651;29;20034;-66
2023/09/27 11:26:27;;;;;;;1999.90;999.90;;;;;;;;;;4955646;29;20065;-71
2023/09/27 11:29:00;;;;;;;1999.90;999.90;;;;;;;;;;4955581;29;20499;-74
2023/09/27 11:31:29;;;;;;;1999.90;999.90;;;;;;;;;;4955734;29;20046;-66
2023/09/27 11:34:13;;;;;;;1999.90;999.90;;;;;;;;;;4957019;29;20036;-66
2023/09/27 11:36:40;;;;;;;1999.90;999.90;;;;;;;;;;4955507;29;20043;-65
2023/09/27 11:39:06;;;;;;;1999.90;999.90;;;;;;;;;;4955512;29;20031;-71
2023/09/27 11:41:32;;;;;;;1999.90;999.90;;;;;;;;;;4955582;29;20051;-67
2023/09/27 11:43:58;;;;;;;1999.90;999.90;;;;;;;;;;4955341;29;20031;-68
2023/09/27 11:46:28;;;;;;;1999.90;999.90;;;;;;;;;;4952361;29;20623;-66
2023/09/27 11:48:54;;;;;;;1999.90;999.90;;;;;;;;;;4951841;28;20486;-65
2023/09/27 11:51:21;;;;;;;1999.90;999.90;;;;;;;;;;4941271;29;20494;-66
2023/09/27 11:53:47;;;;;;;1999.90;999.90;;;;;;;;;;4945264;29;20053;-66
2023/09/27 11:56:13;;;;;;;1999.90;999.90;;;;;;;;;;4943504;29;20058;-66
2023/09/27 11:58:39;;;;;;;1999.90;999.90;;;;;;;;;;4944248;29;20070;-67
2023/09/27 12:01:07;;;;;;;1999.90;999.90;;;;;;;;;;4940821;29;20095;-66
2023/09/27 12:03:33;;;;;;;1999.90;999.90;;;;;;;;;;4936127;29;20030;-67
2023/09/27 12:05:59;;;;;;;1999.90;999.90;;;;;;;;;;4936158;29;20115;-67
2023/09/27 12:08:25;;;;;;;1999.90;999.90;;;;;;;;;;4936249;29;20032;-66
2023/09/27 12:10:51;;;;;;;1999.90;999.90;;;;;;;;;;4918105;29;20495;-64
2023/09/27 12:13:17;;;;;;;1999.90;999.90;;;;;;;;;;4935852;29;20063;-67
2023/09/27 12:15:43;;;;;;;1999.90;999.90;;;;;;;;;;4935329;29;20032;-66
2023/09/27 12:18:09;;;;;;;1999.90;999.90;;;;;;;;;;4935735;29;20038;-70
2023/09/27 12:20:38;;;;;;;1999.90;999.90;;;;;;;;;;4935897;29;20087;-64
2023/09/27 12:23:04;;;;;;;1999.90;999.90;;;;;;;;;;4918891;29;20376;-70
2023/09/27 12:25:31;;;;;;;1999.90;999.90;;;;;;;;;;4917603;29;20400;-71
2023/09/27 12:27:57;;;;;;;1999.90;999.90;;;;;;;;;;4934812;29;20071;-69
2023/09/27 12:30:23;;;;;;;1999.90;999.90;;;;;;;;;;4935233;29;20040;-69
2023/09/27 12:32:51;;;;;;;1999.90;999.90;;;;;;;;;;4935103;29;20024;-66
2023/09/27 12:35:20;;;;;;;1999.90;999.90;;;;;;;;;;4917617;29;20202;-67
2023/09/27 12:37:46;;;;;;;1999.90;999.90;;;;;;;;;;4934884;29;20265;-70
2023/09/27 12:40:12;;;;;;;1999.90;999.90;;;;;;;;;;4935035;29;20200;-66
2023/09/27 12:42:39;;;;;;;1999.90;999.90;;;;;;;;;;4935265;29;20024;-66
2023/09/27 12:45:06;;;;;;;1999.90;999.90;;;;;;;;;;4935524;29;20028;-70
2023/09/27 12:47:33;;;;;;;1999.90;999.90;;;;;;;;;;4934878;29;20091;-65
2023/09/27 12:50:01;;;;;;;1999.90;999.90;;;;;;;;;;4934935;29;20503;-70
2023/09/27 12:52:27;;;;;;;1999.90;999.90;;;;;;;;;;4935048;29;20495;-67
2023/09/27 12:54:53;;;;;;;1999.90;999.90;;;;;;;;;;4934709;29;20039;-67
2023/09/27 12:57:20;;;;;;;1999.90;999.90;;;;;;;;;;4934423;29;20047;-67
2023/09/27 12:59:47;;;;;;;1999.90;999.90;;;;;;;;;;4934443;29;20074;-66
2023/09/27 13:02:13;;;;;;;1999.90;999.90;;;;;;;;;;4934499;29;20106;-70
2023/09/27 13:04:39;;;;;;;1999.90;999.90;;;;;;;;;;4934700;29;20118;-67
2023/09/27 13:07:05;;;;;;;1999.90;999.90;;;;;;;;;;4934605;29;20039;-67
2023/09/27 13:09:31;;;;;;;1999.90;999.90;;;;;;;;;;4934093;29;20043;-66
2023/09/27 13:11:57;;;;;;;1999.90;999.90;;;;;;;;;;4934129;29;20032;-66
2023/09/27 13:14:23;;;;;;;1999.90;999.90;;;;;;;;;;4934588;29;20055;-66
2023/09/27 13:16:49;;;;;;;1999.90;999.90;;;;;;;;;;4934853;29;20031;-71
2023/09/27 13:19:15;;;;;;;1999.90;999.90;;;;;;;;;;4934031;29;20031;-67
2023/09/27 13:21:41;;;;;;;1999.90;999.90;;;;;;;;;;4933947;29;20777;-68
2023/09/27 13:24:08;;;;;;;1999.90;999.90;;;;;;;;;;4934202;29;20043;-72
2023/09/27 13:26:34;;;;;;;1999.90;999.90;;;;;;;;;;4934074;29;20488;-67
2023/09/27 13:29:00;;;;;;;1999.90;999.90;;;;;;;;;;4933774;29;20082;-68
2023/09/27 13:31:31;;;;;;;1999.90;999.90;;;;;;;;;;4934235;29;20121;-67
2023/09/27 13:33:58;;;;;;;1999.90;999.90;;;;;;;;;;4934223;29;20020;-68
2023/09/27 13:36:24;;;;;;;1999.90;999.90;;;;;;;;;;4933857;29;20153;-67
2023/09/27 13:38:51;;;;;;;1999.90;999.90;;;;;;;;;;4934156;29;20024;-67
2023/09/27 13:41:18;;;;;;;1999.90;999.90;;;;;;;;;;4933880;29;20023;-66
2023/09/27 13:43:44;;;;;;;1999.90;999.90;;;;;;;;;;4933652;29;20028;-66
2023/09/27 13:46:10;;;;;;;1999.90;999.90;;;;;;;;;;4934098;29;20380;-67
2023/09/27 13:48:36;;;;;;;1999.90;999.90;;;;;;;;;;4933827;29;20506;-66
2023/09/27 13:51:02;;;;;;;1999.90;999.90;;;;;;;;;;4933588;29;20035;-67
2023/09/27 13:53:28;;;;;;;1999.90;999.90;;;;;;;;;;4938212;29;20092;-72
2023/09/27 13:55:54;;;;;;;1999.90;999.90;;;;;;;;;;4943526;29;20122;-67
2023/09/27 13:58:20;;;;;;;1999.90;999.90;;;;;;;;;;4941598;29;20035;-68
2023/09/27 14:00:46;;;;;;;1999.90;999.90;;;;;;;;;;4937685;29;20106;-72
2023/09/27 14:03:13;;;;;;;1999.90;999.90;;;;;;;;;;4933446;29;20030;-69
2023/09/27 14:05:40;;;;;;;1999.90;999.90;;;;;;;;;;4932935;29;20154;-69
2023/09/27 14:08:06;;;;;;;1999.90;999.90;;;;;;;;;;4932999;29;20024;-71
2023/09/27 14:10:33;;;;;;;1999.90;999.90;;;;;;;;;;4933234;29;20032;-68
2023/09/27 14:12:59;;;;;;;1999.90;999.90;;;;;;;;;;4933277;29;20032;-68
2023/09/27 14:15:25;;;;;;;1999.90;999.90;;;;;;;;;;4933470;29;20032;-66
2023/09/27 14:17:51;;;;;;;1999.90;999.90;;;;;;;;;;4933109;29;20031;-68
2023/09/27 14:20:18;;;;;;;1999.90;999.90;;;;;;;;;;4933191;29;20455;-67
2023/09/27 14:22:44;;;;;;;1999.90;999.90;;;;;;;;;;4933171;29;20047;-73
2023/09/27 14:25:10;;;;;;;1999.90;999.90;;;;;;;;;;4933135;29;20038;-70
2023/09/27 14:27:37;;;;;;;1999.90;999.90;;;;;;;;;;4933208;29;20035;-69
2023/09/27 14:30:04;;;;;;;1999.90;999.90;;;;;;;;;;4932127;29;20067;-67
2023/09/27 14:32:30;;;;;;;1999.90;999.90;;;;;;;;;;4933243;29;20035;-68
2023/09/27 14:34:57;;;;;;;1999.90;999.90;;;;;;;;;;4933568;29;20087;-67
2023/09/27 14:37:23;;;;;;;1999.90;999.90;;;;;;;;;;4933010;29;20484;-65
2023/09/27 14:39:49;;;;;;;1999.90;999.90;;;;;;;;;;4933102;29;20570;-67
2023/09/27 14:42:16;;;;;;;1999.90;999.90;;;;;;;;;;4932542;29;20023;-70
2023/09/27 14:44:42;;;;;;;1999.90;999.90;;;;;;;;;;4933163;29;20035;-66
2023/09/27 14:47:08;;;;;;;1999.90;999.90;;;;;;;;;;4933152;29;20065;-67
2023/09/27 14:49:35;;;;;;;1999.90;999.90;;;;;;;;;;4933435;29;20102;-67
2023/09/27 14:52:01;;;;;;;1999.90;999.90;;;;;;;;;;4948028;28;20030;-72
2023/09/27 14:54:27;;;;;;;1999.90;999.90;;;;;;;;;;4971442;28;20058;-66
2023/09/27 14:56:53;;;;;;;1999.90;999.90;;;;;;;;;;4971528;28;20058;-69
2023/09/27 14:59:20;;;;;;;1999.90;999.90;;;;;;;;;;4971129;28;20031;-65
2023/09/27 15:01:46;;;;;;;1999.90;999.90;;;;;;;;;;4971231;28;20023;-67
2023/09/27 15:04:12;;;;;;;1999.90;999.90;;;;;;;;;;4971559;28;20038;-70
2023/09/27 15:06:39;;;;;;;1999.90;999.90;;;;;;;;;;4971329;28;20521;-70
2023/09/27 15:09:05;;;;;;;1999.90;999.90;;;;;;;;;;4971083;28;20027;-67
2023/09/27 15:11:31;;;;;;;1999.90;999.90;;;;;;;;;;4971001;28;20683;-68
2023/09/27 15:13:58;;;;;;;1999.90;999.90;;;;;;;;;;4971419;28;20035;-66
2023/09/27 15:16:24;;;;;;;1999.90;999.90;;;;;;;;;;4971731;28;20478;-70
2023/09/27 15:18:50;;;;;;;1999.90;999.90;;;;;;;;;;4971619;28;20157;-69
2023/09/27 15:21:16;;;;;;;1999.90;999.90;;;;;;;;;;4971008;28;20536;-67
2023/09/27 15:23:44;;;;;;;1999.90;999.90;;;;;;;;;;4971296;28;20030;-66
2023/09/27 15:26:10;;;;;;;1999.90;999.90;;;;;;;;;;4948190;28;20032;-68
2023/09/27 15:28:36;;;;;;;1999.90;999.90;;;;;;;;;;4941685;29;20043;-66
2023/09/27 15:31:05;;;;;;;1999.90;999.90;;;;;;;;;;4939894;29;20440;-71
2023/09/27 15:33:31;;;;;;;1999.90;999.90;;;;;;;;;;4942304;29;20054;-66
2023/09/27 15:35:57;;;;;;;1999.90;999.90;;;;;;;;;;4942407;29;20027;-67
2023/09/27 15:38:28;;;;;;;1999.90;999.90;;;;;;;;;;4940820;29;20032;-66
2023/09/27 15:40:54;;;;;;;1999.90;999.90;;;;;;;;;;4941975;29;20099;-66
2023/09/27 15:43:20;;;;;;;1999.90;999.90;;;;;;;;;;4945593;29;20577;-66
2023/09/27 15:46:07;;;;;;;1999.90;999.90;;;;;;;;;;4944490;29;20494;-72
2023/09/27 15:48:36;;;;;;;1999.90;999.90;;;;;;;;;;4945363;29;20020;-68
2023/09/27 15:51:06;;;;;;;1999.90;999.90;;;;;;;;;;4936143;29;20040;-67
2023/09/27 15:53:32;;;;;;;1999.90;999.90;;;;;;;;;;4936055;29;20034;-66
2023/09/27 15:55:59;;;;;;;1999.90;999.90;;;;;;;;;;4936299;29;20571;-70
2023/09/27 15:58:26;;;;;;;1999.90;999.90;;;;;;;;;;4929471;29;20036;-65
2023/09/27 16:00:53;;;;;;;1999.90;999.90;;;;;;;;;;4950794;29;20086;-72
2023/09/27 16:03:29;;;;;;;1999.90;999.90;;;;;;;;;;4937047;29;20023;-69
2023/09/27 16:05:57;;;;;;;1999.90;999.90;;;;;;;;;;4933551;29;20035;-68
2023/09/27 16:08:24;;;;;;;1999.90;999.90;;;;;;;;;;4943444;29;20068;-70
2023/09/27 16:10:51;;;;;;;1999.90;999.90;;;;;;;;;;4940684;29;20565;-69
2023/09/27 16:13:20;;;;;;;1999.90;999.90;;;;;;;;;;4947566;29;20030;-72
2023/09/27 16:15:47;;;;;;;1999.90;999.90;;;;;;;;;;4955045;29;20408;-68
2023/09/27 16:18:14;;;;;;;1999.90;999.90;;;;;;;;;;4954757;29;20383;-68
2023/09/27 16:20:40;;;;;;;1999.90;999.90;;;;;;;;;;4954334;29;20023;-73
2023/09/27 16:23:08;;;;;;;1999.90;999.90;;;;;;;;;;4954740;29;20051;-68
2023/09/27 16:25:34;;;;;;;1999.90;999.90;;;;;;;;;;4954507;29;20042;-69
2023/09/27 16:28:00;;;;;;;1999.90;999.90;;;;;;;;;;4954368;29;20027;-70
2023/09/27 16:30:27;;;;;;;1999.90;999.90;;;;;;;;;;4954358;29;20494;-75
2023/09/27 16:32:53;;;;;;;1999.90;999.90;;;;;;;;;;4954303;29;20042;-67
2023/09/27 16:35:19;;;;;;;1999.90;999.90;;;;;;;;;;4954358;29;20046;-66
2023/09/27 16:37:45;;;;;;;1999.90;999.90;;;;;;;;;;4954134;29;20027;-66
2023/09/27 16:40:12;;;;;;;1999.90;999.90;;;;;;;;;;4954040;29;20027;-66
2023/09/27 16:42:38;;;;;;;1999.90;999.90;;;;;;;;;;4953101;29;20027;-67
2023/09/27 16:45:04;;;;;;;1999.90;999.90;;;;;;;;;;4953838;29;20098;-65
2023/09/27 16:47:30;;;;;;;1999.90;999.90;;;;;;;;;;4953841;29;20023;-66
2023/09/27 16:49:56;;;;;;;1999.90;999.90;;;;;;;;;;4952592;29;20067;-66
2023/09/27 16:52:23;;;;;;;1999.90;999.90;;;;;;;;;;4928465;29;20435;-65
2023/09/27 16:54:50;;;;;;;1999.90;999.90;;;;;;;;;;4930664;29;20023;-69
2023/09/27 16:57:16;;;;;;;1999.90;999.90;;;;;;;;;;4941177;29;20055;-63
2023/09/27 16:59:42;;;;;;;1999.90;999.90;;;;;;;;;;4943022;28;20033;-66
2023/09/27 17:02:09;;;;;;;1999.90;999.90;;;;;;;;;;4944571;29;20024;-70
2023/09/27 17:04:35;;;;;;;1999.90;999.90;;;;;;;;;;4944118;29;21079;-63
2023/09/27 17:07:01;;;;;;;1999.90;999.90;;;;;;;;;;4941863;29;20435;-64
2023/09/27 17:09:28;;;;;;;1999.90;999.90;;;;;;;;;;4941873;29;20031;-65
2023/09/27 17:11:54;;;;;;;1999.90;999.90;;;;;;;;;;4944914;29;20019;-67
2023/09/27 17:14:20;;;;;;;1999.90;999.90;;;;;;;;;;4948794;29;20050;-64
2023/09/27 17:16:46;;;;;;;1999.90;999.90;;;;;;;;;;4946460;29;20054;-66
2023/09/27 17:19:12;;;;;;;1999.90;999.90;;;;;;;;;;4953529;29;20363;-68
2023/09/27 17:21:38;;;;;;;1999.90;999.90;;;;;;;;;;4953417;29;20102;-68
2023/09/27 17:24:05;;;;;;;1999.90;999.90;;;;;;;;;;4953558;29;20348;-67
2023/09/27 17:26:31;;;;;;;1999.90;999.90;;;;;;;;;;4953276;29;20498;-68
2023/09/27 17:28:57;;;;;;;1999.90;999.90;;;;;;;;;;4935116;29;20584;-66
2023/09/27 17:31:23;;;;;;;1999.90;999.90;;;;;;;;;;4952887;29;20988;-65
2023/09/27 17:33:49;;;;;;;1999.90;999.90;;;;;;;;;;4953503;29;20530;-77
2023/09/27 17:36:15;;;;;;;1999.90;999.90;;;;;;;;;;4952309;29;20035;-78
2023/09/27 17:38:42;;;;;;;1999.90;999.90;;;;;;;;;;4953042;29;20031;-76
2023/09/27 17:41:08;;;;;;;1999.90;999.90;;;;;;;;;;4951840;29;20027;-65
2023/09/27 17:43:34;;;;;;;1999.90;999.90;;;;;;;;;;4952399;29;20023;-64
2023/09/27 17:46:00;;;;;;;1999.90;999.90;;;;;;;;;;4953098;29;20034;-77
2023/09/27 17:48:27;;;;;;;1999.90;999.90;;;;;;;;;;4953208;29;20506;-71
2023/09/27 17:50:53;;;;;;;1999.90;999.90;;;;;;;;;;4952797;29;20047;-67
2023/09/27 17:53:19;;;;;;;1999.90;999.90;;;;;;;;;;4952691;29;20482;-69
2023/09/27 17:55:45;;;;;;;1999.90;999.90;;;;;;;;;;4953775;28;20067;-70
2023/09/27 17:58:17;;;;;;;1999.90;999.90;;;;;;;;;;4953777;29;20031;-72
2023/09/27 18:00:43;;;;;;;1999.90;999.90;;;;;;;;;;4952557;29;20086;-69
2023/09/27 18:03:09;;;;;;;1999.90;999.90;;;;;;;;;;4947004;29;20387;-64
2023/09/27 18:05:35;;;;;;;1999.90;999.90;;;;;;;;;;4939652;29;20537;-73
2023/09/27 18:08:01;;;;;;;1999.90;999.90;;;;;;;;;;4933947;29;20051;-75
2023/09/27 18:10:29;;;;;;;1999.90;999.90;;;;;;;;;;4915927;29;20050;-78
2023/09/27 18:12:55;;;;;;;1999.90;999.90;;;;;;;;;;4933978;29;20055;-71
2023/09/27 18:15:22;;;;;;;1999.90;999.90;;;;;;;;;;4915796;29;20036;-71
2023/09/27 18:17:48;;;;;;;1999.90;999.90;;;;;;;;;;4933912;29;20478;-77
2023/09/27 18:20:14;;;;;;;1999.90;999.90;;;;;;;;;;4933873;29;20031;-76
2023/09/27 18:22:40;;;;;;;1999.90;999.90;;;;;;;;;;4915539;29;20032;-76
2023/09/27 18:25:07;;;;;;;1999.90;999.90;;;;;;;;;;4933113;29;20051;-78
2023/09/27 18:27:33;;;;;;;1999.90;999.90;;;;;;;;;;4933492;29;20472;-66
2023/09/27 18:29:59;;;;;;;1999.90;999.90;;;;;;;;;;4933176;29;20038;-65
2023/09/27 18:32:25;;;;;;;1999.90;999.90;;;;;;;;;;4933164;29;20023;-71
2023/09/27 18:34:51;;;;;;;1999.90;999.90;;;;;;;;;;4933092;29;20079;-68
2023/09/27 18:37:17;;;;;;;1999.90;999.90;;;;;;;;;;4933126;29;20491;-68